Time;durP1;ratioP1;P1;durP2;ratioP2;P2;SDS_P1;SDS_P2;PMS_P1;PMS_P2;Temp;Humidity;BMP_temperature;BMP_pressure;BME280_temperature;BME280_humidity;BME280_pressure;Samples;Min_cycle;Max_cycle;Signal;HPM_P1;HPM_P2
2022/09/07 00:02:08;;;;;;;23.90;13.55;;;;;;;8.60;58.15;100177.42;1734679;82;21037;-40
2022/09/07 00:04:36;;;;;;;20.05;13.22;;;;;;;8.58;58.21;100178.85;1734738;82;21762;-40
2022/09/07 00:07:03;;;;;;;22.60;13.78;;;;;;;8.54;58.29;100177.92;1734453;82;20922;-40
2022/09/07 00:09:31;;;;;;;25.60;14.15;;;;;;;8.50;58.53;100172.94;1734587;82;21469;-40
2022/09/07 00:11:59;;;;;;;25.50;13.78;;;;;;;8.43;58.71;100174.78;1734385;82;21028;-40
2022/09/07 00:14:27;;;;;;;23.45;13.45;;;;;;;8.35;58.97;100174.83;1734430;82;21029;-40
2022/09/07 00:16:54;;;;;;;19.65;12.58;;;;;;;8.28;59.33;100174.73;1734462;82;21201;-40
2022/09/07 00:19:21;;;;;;;23.47;12.93;;;;;;;8.26;59.70;100172.14;1734404;82;21034;-40
2022/09/07 00:21:49;;;;;;;20.72;12.95;;;;;;;8.26;59.77;100178.34;1734360;82;21009;-40
2022/09/07 00:24:16;;;;;;;21.30;13.53;;;;;;;8.25;59.72;100168.64;1732579;82;21042;-40
2022/09/07 00:26:44;;;;;;;23.70;13.50;;;;;;;8.26;59.52;100166.19;1726193;82;21030;-40
2022/09/07 00:29:11;;;;;;;20.97;13.15;;;;;;;8.21;59.30;100166.36;1726516;82;21171;-40
2022/09/07 00:31:38;;;;;;;21.52;12.88;;;;;;;8.13;59.57;100160.41;1726167;82;20958;-40
2022/09/07 00:34:06;;;;;;;21.93;12.98;;;;;;;8.10;59.70;100154.88;1726328;82;21492;-40
2022/09/07 00:36:33;;;;;;;20.57;12.28;;;;;;;8.08;59.70;100160.62;1726235;82;21042;-40
2022/09/07 00:39:01;;;;;;;19.07;12.03;;;;;;;8.09;59.77;100161.38;1726523;82;21112;-40
2022/09/07 00:41:28;;;;;;;19.57;12.05;;;;;;;8.09;59.73;100154.63;1726616;82;21145;-40
2022/09/07 00:43:58;;;;;;;21.30;12.55;;;;;;;8.00;59.76;100145.22;1726596;82;21025;-40
2022/09/07 00:46:28;;;;;;;20.08;11.93;;;;;;;8.04;59.90;100157.51;1727216;82;21587;-40
2022/09/07 00:49:07;;;;;;;17.73;11.93;;;;;;;8.02;59.91;100160.55;1726967;82;21081;-40
2022/09/07 00:51:43;;;;;;;19.40;11.48;;;;;;;7.99;59.90;100150.38;1727000;82;21604;-40
2022/09/07 00:54:16;;;;;;;20.55;12.43;;;;;;;7.99;59.95;100150.38;1726732;82;21245;-40
2022/09/07 00:56:44;;;;;;;20.48;11.63;;;;;;;8.02;59.97;100153.80;1726683;82;21520;-40
2022/09/07 00:59:13;;;;;;;20.92;11.55;;;;;;;8.07;59.84;100157.67;1726449;82;21090;-40
2022/09/07 01:01:40;;;;;;;19.32;11.83;;;;;;;8.06;59.69;100149.33;1726657;82;20950;-40
2022/09/07 01:04:08;;;;;;;18.27;11.28;;;;;;;8.04;59.52;100154.25;1726554;82;21017;-40
2022/09/07 01:06:37;;;;;;;18.80;11.12;;;;;;;7.98;59.65;100144.77;1726479;82;21136;-40
2022/09/07 01:09:14;;;;;;;21.55;11.78;;;;;;;7.98;59.85;100147.47;1726538;82;20966;-40
2022/09/07 01:11:49;;;;;;;21.85;11.03;;;;;;;7.92;59.69;100140.64;1726806;82;20966;-40
2022/09/07 01:14:13;;;;;;;18.00;10.13;;;;;;;7.88;59.65;100139.70;1726154;82;21054;-40
2022/09/07 01:17:19;;;;;;;19.50;11.48;;;;;;;7.84;59.61;100130.67;1726897;82;21528;-40
2022/09/07 01:20:21;;;;;;;17.27;10.85;;;;;;;7.83;60.01;100127.73;1726433;82;21126;-40
2022/09/07 01:23:33;;;;;;;19.27;11.08;;;;;;;7.81;60.07;100124.55;1725622;82;20999;-40
2022/09/07 01:26:38;;;;;;;17.40;10.88;;;;;;;7.83;60.00;100125.03;1726672;82;20962;-40
2022/09/07 01:29:25;;;;;;;17.98;11.12;;;;;;;7.79;59.77;100126.80;1678364;84;21117;-40
2022/09/07 01:32:12;;;;;;;16.42;10.85;;;;;;;7.74;59.67;100122.36;1717308;82;21808;-40
2022/09/07 01:34:40;;;;;;;20.37;9.63;;;;;;;7.71;59.52;100118.14;1726485;82;21262;-40
2022/09/07 01:37:19;;;;;;;16.95;9.93;;;;;;;7.68;59.50;100125.55;1726399;82;21506;-40
2022/09/07 01:39:54;;;;;;;13.50;9.08;;;;;;;7.66;59.43;100119.11;1727919;82;20974;-40
2022/09/07 01:42:25;;;;;;;16.02;9.23;;;;;;;7.65;59.64;100124.27;1717620;82;21017;-40
2022/09/07 01:45:01;;;;;;;15.85;9.75;;;;;;;7.66;59.80;100118.31;1726721;83;21053;-40
2022/09/07 01:47:47;;;;;;;15.72;9.18;;;;;;;7.66;59.67;100115.62;1726737;82;21226;-40
2022/09/07 01:50:45;;;;;;;12.37;8.85;;;;;;;7.66;59.71;100119.11;1725718;82;20950;-40
2022/09/07 01:53:23;;;;;;;16.45;10.13;;;;;;;7.32;59.80;100068.72;1726607;83;21080;-40
2022/09/07 01:55:59;;;;;;;13.15;8.83;;;;;;;7.57;59.62;100116.99;1717669;82;21042;-40
2022/09/07 01:58:42;;;;;;;16.12;9.43;;;;;;;7.49;59.72;100117.02;1726609;82;21022;-40
2022/09/07 02:01:21;;;;;;;13.38;8.63;;;;;;;7.45;59.95;100111.48;1726866;82;21083;-40
2022/09/07 02:03:55;;;;;;;16.67;9.50;;;;;;;7.40;60.11;100116.48;1719139;82;21034;-40
2022/09/07 02:06:37;;;;;;;12.78;8.00;;;;;;;7.41;59.97;100111.85;1726756;82;20969;-40
2022/09/07 02:09:15;;;;;;;17.52;8.20;;;;;;;7.39;59.90;100115.44;1726612;82;21022;-40
2022/09/07 02:11:46;;;;;;;12.90;8.10;;;;;;;7.37;59.89;100108.22;1726475;82;21066;-40
2022/09/07 02:14:24;;;;;;;11.75;8.05;;;;;;;7.35;59.79;100103.16;1726565;82;26750;-40
2022/09/07 02:17:03;;;;;;;13.22;8.45;;;;;;;7.30;59.69;100107.37;1726189;82;21443;-40
2022/09/07 02:19:38;;;;;;;12.03;8.18;;;;;;;7.24;59.83;100102.45;1726550;82;21010;-40
2022/09/07 02:22:09;;;;;;;12.80;7.85;;;;;;;7.20;59.78;100104.99;1735605;82;21083;-40
2022/09/07 02:24:40;;;;;;;13.90;8.78;;;;;;;7.17;60.06;100106.96;1739891;82;21512;-40
2022/09/07 02:27:13;;;;;;;14.87;9.18;;;;;;;7.11;60.45;100108.25;1730256;82;21136;-40
2022/09/07 02:29:42;;;;;;;13.85;8.35;;;;;;;6.95;60.68;100107.13;1733567;82;21077;-40
2022/09/07 02:32:09;;;;;;;14.80;8.93;;;;;;;6.88;61.02;100112.19;1737278;82;21034;-40
2022/09/07 02:34:37;;;;;;;12.63;7.87;;;;;;;6.83;61.21;100104.26;1739689;82;21045;-40
2022/09/07 02:37:05;;;;;;;14.63;8.53;;;;;;;6.82;61.49;100102.70;1739630;82;21038;-40
2022/09/07 02:39:33;;;;;;;16.17;9.28;;;;;;;6.86;61.53;100095.56;1739670;82;21883;-40
2022/09/07 02:42:00;;;;;;;15.40;8.78;;;;;;;6.94;61.49;100102.84;1736324;82;21531;-40
2022/09/07 02:44:33;;;;;;;16.10;8.33;;;;;;;7.00;61.21;100102.94;1734628;82;21310;-40
2022/09/07 02:47:07;;;;;;;15.60;8.30;;;;;;;7.06;60.86;100101.67;1734485;82;20954;-40
2022/09/07 02:50:09;;;;;;;12.13;8.18;;;;;;;7.09;60.55;100100.23;1734464;81;21013;-40
2022/09/07 02:53:00;;;;;;;13.58;7.95;;;;;;;7.10;60.41;100095.88;1734302;82;23145;-40
2022/09/07 02:56:12;;;;;;;11.97;7.97;;;;;;;7.11;60.25;100096.12;1734317;82;21538;-40
2022/09/07 02:59:06;;;;;;;12.10;7.50;;;;;;;7.09;59.88;100098.88;1734794;82;21699;-40
2022/09/07 03:01:57;;;;;;;12.55;8.13;;;;;;;7.03;59.67;100096.09;1729424;82;22113;-40
2022/09/07 03:04:45;;;;;;;11.65;7.08;;;;;;;7.00;59.64;100093.50;1733907;82;21013;-40
2022/09/07 03:07:19;;;;;;;14.83;8.75;;;;;;;6.95;59.51;100092.31;1743205;81;21242;-40
2022/09/07 03:09:50;;;;;;;11.97;7.78;;;;;;;6.93;59.56;100098.56;1743190;81;20969;-40
2022/09/07 03:12:17;;;;;;;13.53;7.92;;;;;;;6.91;59.56;100098.09;1743122;82;20992;-40
2022/09/07 03:14:44;;;;;;;12.60;7.47;;;;;;;6.91;59.43;100094.05;1742996;81;20969;-40
2022/09/07 03:17:11;;;;;;;13.45;8.08;;;;;;;6.91;59.46;100094.85;1743283;81;21515;-40
2022/09/07 03:19:38;;;;;;;17.62;8.95;;;;;;;6.90;59.43;100088.42;1742931;81;21152;-40
2022/09/07 03:22:06;;;;;;;13.35;8.33;;;;;;;6.87;59.39;100095.22;1741785;81;20938;-40
2022/09/07 03:24:33;;;;;;;15.28;8.88;;;;;;;6.83;59.18;100102.36;1740874;82;21578;-40
2022/09/07 03:27:01;;;;;;;16.17;8.33;;;;;;;6.79;59.54;100103.31;1741289;81;21092;-40
2022/09/07 03:29:28;;;;;;;12.18;8.08;;;;;;;6.72;60.02;100102.45;1741402;82;21038;-40
2022/09/07 03:31:55;;;;;;;15.08;8.98;;;;;;;6.69;60.23;100094.98;1741318;82;21135;-40
2022/09/07 03:34:22;;;;;;;13.78;8.25;;;;;;;6.70;60.15;100098.47;1740166;82;20993;-40
2022/09/07 03:36:49;;;;;;;11.50;8.03;;;;;;;6.70;59.89;100105.20;1740202;82;20974;-40
2022/09/07 03:39:19;;;;;;;12.03;7.60;;;;;;;6.70;59.66;100101.16;1740135;82;21068;-40
2022/09/07 03:41:45;;;;;;;11.70;7.97;;;;;;;6.70;59.69;100095.77;1741076;81;21468;-40
2022/09/07 03:44:12;;;;;;;14.35;8.13;;;;;;;6.70;59.61;100095.77;1740632;82;21134;-40
2022/09/07 03:46:40;;;;;;;13.03;8.53;;;;;;;6.70;59.43;100092.53;1741582;82;20986;-40
2022/09/07 03:49:07;;;;;;;15.00;8.13;;;;;;;6.71;59.29;100091.98;1741704;82;21089;-40
2022/09/07 03:51:34;;;;;;;12.73;8.25;;;;;;;6.70;59.24;100090.38;1741430;82;21556;-40
2022/09/07 03:54:01;;;;;;;17.02;8.88;;;;;;;6.69;59.31;100088.79;1741598;82;21089;-40
2022/09/07 03:56:28;;;;;;;11.25;7.58;;;;;;;6.70;59.31;100091.73;1740573;82;21539;-40
2022/09/07 03:58:55;;;;;;;13.25;8.20;;;;;;;6.70;59.29;100093.88;1741168;82;21017;-40
2022/09/07 04:01:24;;;;;;;14.90;8.50;;;;;;;6.70;59.43;100095.77;1740178;82;21065;-40
2022/09/07 04:03:51;;;;;;;14.15;8.10;;;;;;;6.69;59.64;100095.53;1740197;82;21072;-40
2022/09/07 04:06:18;;;;;;;15.23;8.88;;;;;;;6.70;59.79;100099.27;1740415;82;21069;-39
2022/09/07 04:08:47;;;;;;;12.90;8.33;;;;;;;6.71;59.79;100094.13;1740934;82;21132;-40
2022/09/07 04:11:16;;;;;;;12.68;8.68;;;;;;;6.71;59.78;100101.41;1740521;82;21513;-39
2022/09/07 04:13:44;;;;;;;15.18;8.68;;;;;;;6.73;59.96;100099.20;1742748;81;20961;-40
2022/09/07 04:16:21;;;;;;;12.55;7.75;;;;;;;6.74;60.24;100098.87;1741633;81;20994;-40
2022/09/07 04:18:53;;;;;;;13.45;8.08;;;;;;;6.78;60.44;100093.63;1740505;82;21041;-40
2022/09/07 04:21:21;;;;;;;14.13;8.58;;;;;;;6.88;60.47;100104.10;1740456;82;21195;-40
2022/09/07 04:23:49;;;;;;;13.98;8.68;;;;;;;6.99;60.35;100102.69;1740355;82;20958;-40
2022/09/07 04:26:22;;;;;;;13.53;8.35;;;;;;;7.09;60.23;100105.07;1741524;82;20973;-40
2022/09/07 04:28:50;;;;;;;12.80;8.30;;;;;;;7.17;60.14;100103.47;1740964;81;20994;-39
2022/09/07 04:31:18;;;;;;;12.43;8.15;;;;;;;7.21;59.82;100107.91;1740792;82;21081;-40
2022/09/07 04:36:23;;;;;;;12.78;7.92;;;;;;;7.25;59.80;100102.13;1836105;78;23331;-40
2022/09/07 04:38:56;;;;;;;13.72;7.65;;;;;;;7.14;60.17;100106.26;1806304;79;20911;-40
2022/09/07 04:41:22;;;;;;;14.38;8.43;;;;;;;7.23;59.96;100111.64;1805965;79;21061;-40
2022/09/07 04:43:53;;;;;;;13.13;8.20;;;;;;;7.23;59.92;100113.78;1805648;79;21460;-40
2022/09/07 04:46:23;;;;;;;15.30;8.75;;;;;;;7.24;59.97;100113.23;1805989;79;21575;-40
2022/09/07 04:48:54;;;;;;;;;;;;;;;7.28;60.21;100112.27;1808775;79;21005;-40
2022/09/07 04:51:25;;;;;;;14.05;7.78;;;;;;;7.32;60.10;100111.87;1805974;79;20066;-40
2022/09/07 04:53:53;;;;;;;15.03;8.23;;;;;;;7.18;60.16;100116.64;1806115;79;21083;-40
2022/09/07 04:56:21;;;;;;;12.37;7.42;;;;;;;7.17;60.23;100116.95;1805805;79;20991;-40
2022/09/07 04:58:48;;;;;;;16.52;8.00;;;;;;;7.15;60.49;100114.59;1805789;79;20998;-40
2022/09/07 05:01:18;;;;;;;15.10;8.45;;;;;;;7.20;60.76;100112.29;1805853;79;20967;-40
2022/09/07 05:03:45;;;;;;;11.65;7.92;;;;;;;7.24;60.95;100113.23;1806169;79;21006;-40
2022/09/07 05:06:12;;;;;;;15.38;7.83;;;;;;;7.28;60.90;100114.97;1805857;79;21237;-40
2022/09/07 05:08:42;;;;;;;13.10;7.62;;;;;;;7.31;60.76;100112.21;1805673;79;21013;-39
2022/09/07 05:11:10;;;;;;;13.78;7.72;;;;;;;7.38;60.76;100115.20;1806201;79;20998;-40
2022/09/07 05:13:38;;;;;;;15.20;8.18;;;;;;;7.43;60.80;100114.48;1805873;79;20983;-40
2022/09/07 05:16:18;;;;;;;13.18;7.95;;;;;;;7.52;60.80;100110.97;1806027;79;21026;-39
2022/09/07 05:18:50;;;;;;;12.95;7.87;;;;;;;7.67;61.01;100107.77;1805690;79;22155;-40
2022/09/07 05:21:23;;;;;;;13.88;7.80;;;;;;;7.85;61.19;100116.83;1778599;79;21052;-40
2022/09/07 05:23:54;;;;;;;14.50;7.50;;;;;;;8.01;60.86;100109.56;1805953;79;21054;-40
2022/09/07 05:26:22;;;;;;;10.65;7.65;;;;;;;8.17;60.20;100113.31;1806091;79;21001;-40
2022/09/07 05:28:49;;;;;;;12.82;7.20;;;;;;;8.32;60.05;100106.05;1805720;79;21002;-40
2022/09/07 05:31:18;;;;;;;11.15;6.87;;;;;;;8.46;60.10;100105.81;1805655;79;23111;-40
2022/09/07 05:33:52;;;;;;;14.50;7.37;;;;;;;8.59;59.59;100107.47;1805939;79;20987;-40
2022/09/07 05:36:20;;;;;;;12.00;7.15;;;;;;;8.72;60.01;100099.66;1803469;79;20960;-40
2022/09/07 05:38:47;;;;;;;12.40;7.35;;;;;;;8.84;59.15;100105.71;1803079;79;20998;-40
2022/09/07 05:41:16;;;;;;;12.20;7.60;;;;;;;8.96;59.44;100105.20;1803231;79;20956;-40
2022/09/07 05:43:44;;;;;;;9.40;5.25;;;;;;;9.07;58.44;100101.55;1803306;79;22191;-40
2022/09/07 05:46:13;;;;;;;13.20;7.65;;;;;;;9.20;57.98;100101.06;1802913;79;21528;-39
2022/09/07 05:48:41;;;;;;;8.45;5.45;;;;;;;9.30;58.02;100097.36;1802771;79;20955;-40
2022/09/07 05:51:08;;;;;;;12.93;7.40;;;;;;;9.41;57.36;100100.45;1803006;79;20983;-40
2022/09/07 05:53:36;;;;;;;11.00;7.12;;;;;;;9.52;57.40;100098.35;1802607;79;20971;-40
2022/09/07 05:56:04;;;;;;;11.48;7.78;;;;;;;9.66;57.31;100107.52;1802968;79;21072;-40
2022/09/07 05:58:31;;;;;;;13.55;7.58;;;;;;;9.80;57.10;100105.86;1802674;79;20979;-40
2022/09/07 06:01:05;;;;;;;13.95;7.67;;;;;;;9.94;56.81;100112.53;1802576;79;20873;-40
2022/09/07 06:03:33;;;;;;;11.93;8.03;;;;;;;10.09;56.19;100107.02;1802660;79;21026;-40
2022/09/07 06:06:08;;;;;;;14.20;7.87;;;;;;;10.24;55.81;100106.95;1802934;79;21064;-40
2022/09/07 06:08:37;;;;;;;12.28;8.08;;;;;;;10.41;55.86;100110.77;1802822;79;21197;-40
2022/09/07 06:11:12;;;;;;;12.68;8.25;;;;;;;10.58;55.17;100111.91;1803010;79;21051;-40
2022/09/07 06:13:40;;;;;;;16.57;9.38;;;;;;;10.75;54.73;100110.84;1802847;79;20959;-40
2022/09/07 06:16:09;;;;;;;15.18;10.32;;;;;;;10.90;53.56;100112.29;1802691;79;21361;-40
2022/09/07 06:18:39;;;;;;;18.70;10.98;;;;;;;11.07;52.50;100118.59;1802948;79;20970;-40
2022/09/07 06:21:18;;;;;;;16.27;10.78;;;;;;;11.21;51.79;100112.20;1803238;79;21082;-40
2022/09/07 06:23:47;;;;;;;16.02;10.18;;;;;;;11.35;50.99;100113.95;1802622;79;20919;-40
2022/09/07 06:26:16;;;;;;;17.98;10.28;;;;;;;11.50;49.91;100109.70;1803071;79;20963;-40
2022/09/07 06:28:47;;;;;;;17.30;9.83;;;;;;;11.63;49.23;100112.57;1802714;79;21512;-40
2022/09/07 06:31:17;;;;;;;14.80;7.57;;;;;;;11.77;49.29;100111.61;1803192;79;20992;-40
2022/09/07 06:33:44;;;;;;;15.25;10.28;;;;;;;11.90;48.92;100105.55;1802736;79;21196;-40
2022/09/07 06:36:20;;;;;;;16.80;10.65;;;;;;;12.03;48.82;100111.12;1795347;79;20997;-40
2022/09/07 06:38:48;;;;;;;14.70;9.78;;;;;;;12.17;48.31;100115.55;1792095;80;21003;-40
2022/09/07 06:41:20;;;;;;;17.62;10.00;;;;;;;12.34;47.56;100107.61;1792099;80;21030;-40
2022/09/07 06:43:48;;;;;;;14.90;10.08;;;;;;;12.48;47.54;100106.58;1792380;80;20995;-40
2022/09/07 06:46:16;;;;;;;15.78;9.58;;;;;;;12.63;46.66;100112.56;1792184;80;21221;-40
2022/09/07 06:48:43;;;;;;;18.23;9.90;;;;;;;12.77;45.23;100104.71;1792182;79;21292;-40
2022/09/07 06:51:17;;;;;;;14.15;9.75;;;;;;;12.90;45.46;100106.72;1792144;80;21085;-40
2022/09/07 06:53:46;;;;;;;14.73;9.08;;;;;;;13.06;45.14;100114.27;1792209;79;21536;-40
2022/09/07 06:56:15;;;;;;;12.20;8.35;;;;;;;13.19;44.85;100115.73;1792225;79;21073;-40
2022/09/07 06:58:43;;;;;;;13.80;8.87;;;;;;;13.36;44.47;100120.73;1792442;79;21113;-40
2022/09/07 07:01:19;;;;;;;13.28;8.55;;;;;;;13.51;44.90;100112.86;1792183;80;20974;-40
2022/09/07 07:03:46;;;;;;;17.62;9.63;;;;;;;13.65;44.38;100112.52;1792195;80;21073;-40
2022/09/07 07:06:14;;;;;;;12.85;8.45;;;;;;;13.80;43.24;100113.00;1792160;80;21034;-40
2022/09/07 07:08:41;;;;;;;14.58;9.25;;;;;;;13.93;42.06;100116.35;1792159;80;21094;-40
2022/09/07 07:11:10;;;;;;;13.38;8.60;;;;;;;14.04;41.24;100113.81;1787190;79;21226;-40
2022/09/07 07:13:41;;;;;;;11.68;6.80;;;;;;;14.13;41.94;100112.41;1792254;80;20993;-40
2022/09/07 07:16:11;;;;;;;11.40;7.42;;;;;;;14.24;40.76;100111.99;1792307;80;21576;-40
2022/09/07 07:18:38;;;;;;;10.35;7.10;;;;;;;14.35;40.41;100117.05;1792405;80;20998;-40
2022/09/07 07:21:08;;;;;;;9.63;6.70;;;;;;;14.43;40.71;100114.44;1792566;79;21067;-40
2022/09/07 07:23:36;;;;;;;10.10;6.50;;;;;;;14.54;40.85;100112.67;1792310;80;21856;-40
2022/09/07 07:26:14;;;;;;;10.70;6.22;;;;;;;14.68;40.04;100110.94;1792155;80;21496;-40
2022/09/07 07:28:47;;;;;;;9.08;6.22;;;;;;;14.79;40.20;100107.78;1792429;80;20989;-40
2022/09/07 07:31:17;;;;;;;8.65;5.12;;;;;;;14.95;39.84;100103.52;1792656;80;20958;-40
2022/09/07 07:33:45;;;;;;;9.10;4.87;;;;;;;15.05;37.99;100101.51;1792278;79;21493;-40
2022/09/07 07:36:24;;;;;;;9.83;5.67;;;;;;;15.12;38.15;100103.52;1794976;79;21213;-40
2022/09/07 07:38:54;;;;;;;7.70;5.22;;;;;;;15.18;38.72;100105.56;1796997;79;20909;-40
2022/09/07 07:41:24;;;;;;;8.18;4.28;;;;;;;15.23;38.25;100103.87;1796974;79;21011;-40
2022/09/07 07:43:57;;;;;;;8.15;4.67;;;;;;;15.31;36.86;100098.47;1796660;79;21510;-40
2022/09/07 07:46:24;;;;;;;9.23;5.25;;;;;;;15.40;37.06;100104.43;1796834;79;21009;-40
2022/09/07 07:48:52;;;;;;;8.95;3.90;;;;;;;15.52;38.24;100098.17;1796880;79;21123;-40
2022/09/07 07:51:19;;;;;;;6.00;3.87;;;;;;;15.68;38.06;100097.95;1796777;79;20971;-40
2022/09/07 07:53:47;;;;;;;4.87;3.60;;;;;;;15.81;35.94;100095.14;1796811;79;21026;-41
2022/09/07 07:56:15;;;;;;;8.38;3.87;;;;;;;15.89;35.58;100094.03;1796785;79;21432;-41
2022/09/07 07:58:46;;;;;;;4.25;2.95;;;;;;;15.95;35.30;100095.84;1796943;79;20979;-41
2022/09/07 08:01:15;;;;;;;2.50;1.75;;;;;;;16.05;36.02;100090.48;1795180;79;21135;-40
2022/09/07 08:03:46;;;;;;;4.12;2.40;;;;;;;16.20;34.29;100096.06;1772376;81;21061;-41
2022/09/07 08:06:18;;;;;;;6.37;3.37;;;;;;;16.22;33.84;100088.24;1772893;81;20953;-41
2022/09/07 08:08:48;;;;;;;4.05;2.90;;;;;;;16.25;34.92;100085.55;1766861;79;22082;-41
2022/09/07 08:11:17;;;;;;;4.30;2.20;;;;;;;16.29;33.71;100079.52;1772785;81;21025;-41
2022/09/07 08:13:48;;;;;;;4.97;2.55;;;;;;;16.35;34.22;100084.06;1772688;79;20934;-41
2022/09/07 08:16:16;;;;;;;3.22;2.30;;;;;;;16.45;34.30;100088.25;1772522;81;21025;-41
2022/09/07 08:18:44;;;;;;;4.55;2.58;;;;;;;16.56;33.44;100074.60;1772601;79;21001;-41
2022/09/07 08:21:13;;;;;;;2.90;2.12;;;;;;;16.65;34.46;100076.47;1772640;79;21017;-41
2022/09/07 08:23:40;;;;;;;6.25;2.60;;;;;;;16.79;33.23;100068.91;1772657;81;20933;-40
2022/09/07 08:26:07;;;;;;;3.87;2.60;;;;;;;16.86;32.89;100066.98;1772406;79;21279;-41
2022/09/07 08:28:37;;;;;;;3.60;2.37;;;;;;;16.98;32.89;100071.34;1772582;81;21013;-41
2022/09/07 08:31:06;;;;;;;3.25;2.45;;;;;;;17.08;32.67;100054.75;1772825;81;21009;-41
2022/09/07 08:33:36;;;;;;;3.70;2.80;;;;;;;17.18;33.30;100062.23;1772832;81;21610;-41
2022/09/07 08:36:08;;;;;;;4.37;2.62;;;;;;;17.32;33.21;100062.27;1772561;79;20958;-41
2022/09/07 08:38:36;;;;;;;3.98;2.58;;;;;;;17.48;32.29;100060.52;1772853;81;21205;-41
2022/09/07 08:41:20;;;;;;;4.00;2.50;;;;;;;17.59;31.90;100063.53;1772652;81;21010;-41
2022/09/07 08:43:58;;;;;;;3.72;2.17;;;;;;;17.70;31.62;100057.48;1772644;81;20974;-41
2022/09/07 08:46:33;;;;;;;3.65;2.35;;;;;;;17.69;30.87;100054.53;1772741;81;21018;-41
2022/09/07 08:49:00;;;;;;;4.00;2.50;;;;;;;17.59;31.38;100056.67;1772478;81;21292;-40
2022/09/07 08:51:35;;;;;;;3.12;2.08;;;;;;;17.57;32.27;100047.25;1759215;81;23057;-41
2022/09/07 08:54:02;;;;;;;2.83;2.22;;;;;;;17.73;31.75;100047.67;1772263;81;21028;-41
2022/09/07 08:56:39;;;;;;;4.85;2.67;;;;;;;17.90;31.40;100046.91;1733087;81;21014;-41
2022/09/07 08:59:17;;;;;;;5.08;2.60;;;;;;;18.05;30.79;100047.70;1772447;81;21009;-41
2022/09/07 09:01:44;;;;;;;4.00;2.50;;;;;;;18.14;29.94;100035.73;1772485;81;21033;-41
2022/09/07 09:04:15;;;;;;;3.10;2.20;;;;;;;18.21;29.92;100034.34;1772437;81;21182;-41
2022/09/07 09:06:51;;;;;;;3.37;2.37;;;;;;;18.37;30.12;100035.30;1770338;80;21555;-41
2022/09/07 09:09:44;;;;;;;4.15;2.60;;;;;;;18.51;30.15;100028.40;1772486;79;21033;-41
2022/09/07 09:12:19;;;;;;;4.28;2.17;;;;;;;18.63;30.72;100028.02;1759302;81;21017;-41
2022/09/07 09:15:21;;;;;;;4.72;2.45;;;;;;;18.90;30.50;100021.43;1772433;81;21516;-41
2022/09/07 09:18:30;;;;;;;3.60;2.22;;;;;;;19.24;30.13;99999.66;1772347;79;21130;-41
2022/09/07 09:20:58;;;;;;;3.47;2.10;;;;;;;19.47;28.72;100021.34;1772491;79;21069;-41
2022/09/07 09:23:42;;;;;;;3.58;1.72;;;;;;;19.29;29.10;100019.27;1772713;79;20962;-41
2022/09/07 09:26:17;;;;;;;3.22;2.20;;;;;;;19.18;29.32;100022.66;1772625;81;20973;-41
2022/09/07 09:28:44;;;;;;;3.10;2.40;;;;;;;19.26;30.04;100017.92;1772590;81;21076;-41
2022/09/07 09:31:21;;;;;;;4.40;2.30;;;;;;;19.47;29.52;100003.45;1759765;81;21124;-41
2022/09/07 09:34:21;;;;;;;3.50;2.52;;;;;;;19.79;29.05;100007.36;1772552;79;21077;-41
2022/09/07 09:36:50;;;;;;;2.30;2.10;;;;;;;20.10;28.78;100004.13;1779781;79;21028;-41
2022/09/07 09:39:31;;;;;;;4.92;2.72;;;;;;;20.34;27.41;100002.33;1789391;80;21032;-41
2022/09/07 09:42:12;;;;;;;3.77;2.70;;;;;;;20.32;27.09;99999.23;1789325;80;21025;-41
2022/09/07 09:44:39;;;;;;;7.25;2.80;;;;;;;20.19;27.01;99985.73;1786927;80;21419;-41
2022/09/07 09:47:05;;;;;;;3.22;2.35;;;;;;;20.19;27.61;99985.73;1789378;80;20992;-41
2022/09/07 09:49:38;;;;;;;3.50;2.47;;;;;;;20.41;27.59;99979.45;1789218;80;21012;-41
2022/09/07 09:52:13;;;;;;;4.15;2.37;;;;;;;20.56;27.08;99976.13;1789372;80;21015;-41
2022/09/07 09:54:42;;;;;;;2.90;2.20;;;;;;;20.56;27.49;99977.52;1788596;79;21032;-41
2022/09/07 09:57:17;;;;;;;3.15;2.40;;;;;;;20.59;27.27;99974.52;1789322;80;21842;-41
2022/09/07 09:59:44;;;;;;;3.50;2.40;;;;;;;20.52;27.41;99975.40;1789003;80;20952;-41
2022/09/07 10:02:19;;;;;;;4.08;2.35;;;;;;;20.42;27.61;99978.27;1742794;80;20965;-41
2022/09/07 10:04:46;;;;;;;4.05;2.42;;;;;;;20.36;27.90;99980.09;1782769;79;20961;-41
2022/09/07 10:07:23;;;;;;;4.05;2.80;;;;;;;20.28;26.41;99966.17;1789231;80;21568;-41
2022/09/07 10:09:52;;;;;;;3.62;2.30;;;;;;;20.19;26.78;99971.38;1789447;80;21298;-41
2022/09/07 10:12:33;;;;;;;4.12;2.20;;;;;;;20.22;27.77;99965.08;1789265;80;20969;-41
2022/09/07 10:15:02;;;;;;;3.85;2.10;;;;;;;20.48;27.59;99961.48;1788999;80;21024;-41
2022/09/07 10:17:37;;;;;;;3.20;2.10;;;;;;;20.71;27.60;99967.09;1789206;80;21031;-41
2022/09/07 10:20:19;;;;;;;3.83;2.30;;;;;;;20.89;26.00;99963.51;1789422;80;21294;-41
2022/09/07 10:22:58;;;;;;;2.70;1.90;;;;;;;21.02;27.03;99958.20;1789219;80;21268;-41
2022/09/07 10:25:29;;;;;;;;;;;;;;;21.37;26.86;99951.42;1791775;79;20956;-41
2022/09/07 10:28:07;;;;;;;3.75;2.40;;;;;;;21.77;25.84;99945.45;1788902;80;20089;-41
2022/09/07 10:31:12;;;;;;;3.87;2.30;;;;;;;21.73;24.65;99953.80;1789169;80;20917;-41
2022/09/07 10:33:57;;;;;;;4.28;2.25;;;;;;;21.67;24.45;99947.19;1789394;79;21063;-41
2022/09/07 10:36:35;;;;;;;3.00;2.10;;;;;;;21.54;26.13;99942.84;1788535;79;21125;-41
2022/09/07 10:39:06;;;;;;;4.15;2.25;;;;;;;21.50;25.67;99939.97;1786490;80;21076;-41
2022/09/07 10:41:39;;;;;;;3.67;2.25;;;;;;;21.47;24.43;99949.09;1786850;80;20984;-41
2022/09/07 10:44:09;;;;;;;3.25;2.27;;;;;;;21.53;25.35;99935.02;1786897;80;21072;-41
2022/09/07 10:46:50;;;;;;;5.10;2.58;;;;;;;21.90;25.08;99931.99;1786845;79;21538;-41
2022/09/07 10:49:47;;;;;;;3.40;2.17;;;;;;;22.42;25.19;99930.03;1786032;80;21235;-41
2022/09/07 10:52:32;;;;;;;3.47;2.20;;;;;;;22.99;25.10;99924.72;1786672;80;21072;-41
2022/09/07 10:55:19;;;;;;;3.65;2.08;;;;;;;23.56;23.98;99924.95;1786663;80;21542;-41
2022/09/07 10:58:03;;;;;;;3.25;2.22;;;;;;;24.05;23.46;99915.95;1786572;79;21005;-41
2022/09/07 11:00:38;;;;;;;4.20;2.60;;;;;;;24.06;22.67;99915.34;1779448;80;21087;-41
2022/09/07 11:03:16;;;;;;;2.37;1.80;;;;;;;23.78;22.59;99912.11;1786448;79;21252;-41
2022/09/07 11:06:15;;;;;;;4.10;1.90;;;;;;;23.47;23.30;99916.48;1785903;80;21328;-41
2022/09/07 11:09:01;;;;;;;;;;;;;;;23.35;23.99;99904.68;1789077;80;21037;-41
2022/09/07 11:11:32;;;;;;;4.60;2.58;;;;;;;23.52;23.81;99913.20;1742250;80;20515;-41
2022/09/07 11:14:13;;;;;;;5.72;2.30;;;;;;;23.42;22.96;99916.19;1786551;79;21175;-41
2022/09/07 11:16:58;;;;;;;3.45;2.47;;;;;;;23.31;22.56;99905.38;1786606;79;21122;-41
2022/09/07 11:19:33;;;;;;;2.55;2.10;;;;;;;23.19;22.38;99901.93;1786791;80;21015;-41
2022/09/07 11:22:20;;;;;;;3.02;2.30;;;;;;;23.19;23.08;99906.08;1786578;79;20921;-41
2022/09/07 11:25:01;;;;;;;4.37;2.25;;;;;;;23.33;23.35;99895.42;1786519;79;21056;-41
2022/09/07 11:27:36;;;;;;;5.10;2.15;;;;;;;23.76;22.77;99889.63;1786514;80;21039;-41
2022/09/07 11:30:08;;;;;;;2.22;1.92;;;;;;;24.03;21.45;99884.35;1786946;79;21148;-41
2022/09/07 11:32:36;;;;;;;3.45;2.10;;;;;;;23.90;21.19;99889.07;1780630;80;21536;-41
2022/09/07 11:35:14;;;;;;;4.03;2.25;;;;;;;23.69;21.72;99889.80;1786893;79;21281;-41
2022/09/07 11:37:46;;;;;;;3.65;2.30;;;;;;;23.62;22.02;99883.09;1766095;79;21044;-41
2022/09/07 11:40:34;;;;;;;4.08;2.30;;;;;;;23.89;21.54;99880.59;1789354;80;21515;-41
2022/09/07 11:43:30;;;;;;;3.10;1.95;;;;;;;24.29;21.50;99872.77;1788894;79;21225;-41
2022/09/07 11:46:21;;;;;;;5.70;2.60;;;;;;;24.80;21.08;99877.77;1789040;80;20993;-41
2022/09/07 11:48:57;;;;;;;4.60;2.67;;;;;;;24.90;20.58;99876.09;1781516;80;21021;-41
2022/09/07 11:52:04;;;;;;;3.12;2.50;;;;;;;24.59;20.80;99865.35;1789361;79;21037;-41
2022/09/07 11:54:49;;;;;;;4.40;2.40;;;;;;;24.30;21.04;99864.03;1789153;80;21013;-41
2022/09/07 11:58:05;;;;;;;4.60;2.98;;;;;;;24.21;20.91;99864.66;1789546;80;21093;-41